createdAt,value
2023-04-22T00:02:53.825Z,100115.34
2023-04-22T00:07:55.481Z,100112.44
2023-04-22T00:12:56.930Z,100115.03
2023-04-22T00:17:59.082Z,100120.31
2023-04-22T00:23:00.628Z,100117.84
2023-04-22T00:28:02.079Z,100111.47
2023-04-22T00:33:03.776Z,100110.00
2023-04-22T00:38:05.372Z,100110.59
2023-04-22T00:43:08.955Z,100102.59
2023-04-22T00:48:10.585Z,100111.94
2023-04-22T00:53:12.196Z,100108.97
2023-04-22T00:58:14.193Z,100113.13
2023-04-22T01:03:15.819Z,100124.66
2023-04-22T01:08:17.568Z,100115.91
2023-04-22T01:13:19.024Z,100120.19
2023-04-22T01:18:20.641Z,100109.66
2023-04-22T01:23:22.637Z,100120.19
2023-04-22T01:28:24.609Z,100114.25
2023-04-22T01:33:26.394Z,100110.44
2023-04-22T01:38:28.879Z,100112.41
2023-04-22T01:43:33.660Z,100109.31
2023-04-22T01:48:35.967Z,100103.63
2023-04-22T01:53:37.462Z,100107.31
2023-04-22T01:58:40.437Z,100102.03
2023-04-22T02:03:42.074Z,100100.44
2023-04-22T02:08:43.637Z,100098.19
2023-04-22T02:13:45.060Z,100093.50
2023-04-22T02:18:46.476Z,100083.19
2023-04-22T02:23:47.945Z,100088.56
2023-04-22T02:28:49.390Z,100083.66
2023-04-22T02:33:51.046Z,100075.56
2023-04-22T02:38:52.464Z,100076.03
2023-04-22T02:43:53.907Z,100079.19
2023-04-22T02:48:55.519Z,100077.94
2023-04-22T02:53:56.969Z,100071.06
2023-04-22T02:58:58.402Z,100066.63
2023-04-22T03:04:00.072Z,100063.06
2023-04-22T03:09:01.898Z,100069.78
2023-04-22T03:14:03.340Z,100059.69
2023-04-22T03:19:04.787Z,100064.66
2023-04-22T03:24:06.438Z,100058.88
2023-04-22T03:29:07.910Z,100060.81
2023-04-22T03:34:09.361Z,100061.47
2023-04-22T03:39:10.798Z,100064.38
2023-04-22T03:44:12.217Z,100062.91
2023-04-22T03:49:13.686Z,100052.03
2023-04-22T03:54:15.219Z,100058.28
2023-04-22T03:59:18.073Z,100056.31
2023-04-22T04:04:20.428Z,100052.44
2023-04-22T04:09:22.128Z,100055.66
2023-04-22T04:14:23.612Z,100052.00
2023-04-22T04:19:25.125Z,100048.97
2023-04-22T04:24:26.594Z,100047.66
2023-04-22T04:29:28.090Z,100053.44
2023-04-22T04:34:29.516Z,100056.03
2023-04-22T04:39:31.056Z,100048.69
2023-04-22T04:44:32.466Z,100054.06
2023-04-22T04:49:39.813Z,100062.69
2023-04-22T04:54:41.456Z,100065.16
2023-04-22T04:59:42.893Z,100063.91
2023-04-22T05:04:44.419Z,100068.66
2023-04-22T05:09:45.930Z,100073.09
2023-04-22T05:14:47.364Z,100073.03
2023-04-22T05:19:48.880Z,100084.59
2023-04-22T05:24:50.390Z,100074.41
2023-04-22T05:29:51.815Z,100080.53
2023-04-22T05:34:53.238Z,100074.50
2023-04-22T05:39:54.813Z,100076.75
2023-04-22T05:44:56.311Z,100074.13
2023-04-22T05:49:57.747Z,100071.47
2023-04-22T05:54:59.163Z,100063.09
2023-04-22T06:00:00.842Z,100070.41
2023-04-22T06:05:02.593Z,100067.56
2023-04-22T06:10:05.627Z,100074.81
2023-04-22T06:15:07.629Z,100075.66
2023-04-22T06:20:09.428Z,100083.59
2023-04-22T06:25:10.914Z,100078.22
2023-04-22T06:30:12.628Z,100082.84
2023-04-22T06:35:14.189Z,100073.06
2023-04-22T06:40:15.731Z,100068.94
2023-04-22T06:45:17.250Z,100076.66
2023-04-22T06:50:18.741Z,100086.38
2023-04-22T06:55:20.232Z,100081.81
2023-04-22T07:00:21.696Z,100071.97
2023-04-22T07:05:23.163Z,100080.66
2023-04-22T07:10:24.569Z,100079.22
2023-04-22T07:15:26.042Z,100079.19
2023-04-22T07:20:27.501Z,100088.75
2023-04-22T07:25:29.047Z,100080.00
2023-04-22T07:30:30.762Z,100081.13
2023-04-22T07:35:32.221Z,100080.53
2023-04-22T07:40:33.632Z,100083.56
2023-04-22T07:45:35.206Z,100082.28
2023-04-22T07:50:38.593Z,100082.59
2023-04-22T07:55:40.353Z,100085.00
2023-04-22T08:00:42.110Z,100074.56
2023-04-22T08:05:43.620Z,100069.28
2023-04-22T08:10:45.044Z,100070.50
2023-04-22T08:15:46.608Z,100073.22
2023-04-22T08:20:48.074Z,100074.56
2023-04-22T08:25:49.992Z,100072.22
2023-04-22T08:30:51.434Z,100077.47
2023-04-22T08:35:53.052Z,100067.75
2023-04-22T08:40:57.014Z,100053.50
2023-04-22T08:45:58.521Z,100057.44
2023-04-22T08:51:00.526Z,100062.78
2023-04-22T08:56:02.066Z,100052.25
2023-04-22T09:01:03.789Z,100060.78
2023-04-22T09:06:06.267Z,100062.44
2023-04-22T09:11:07.730Z,100063.81
2023-04-22T09:16:10.121Z,100064.81
2023-04-22T09:21:11.679Z,100062.28
2023-04-22T09:26:15.034Z,100048.41
2023-04-22T09:31:16.568Z,100054.06
2023-04-22T09:36:22.580Z,100052.66
2023-04-22T09:41:31.555Z,100055.31
2023-04-22T09:46:33.980Z,100041.75
2023-04-22T09:51:35.557Z,100030.34
2023-04-22T09:56:50.239Z,100031.63
2023-04-22T10:02:07.163Z,100034.50
2023-04-22T10:07:08.769Z,100024.16
2023-04-22T10:12:11.285Z,100020.19
2023-04-22T10:17:13.525Z,100022.53
2023-04-22T10:22:15.331Z,100025.31
2023-04-22T10:27:21.556Z,100015.41
2023-04-22T10:32:22.933Z,100011.72
2023-04-22T10:37:25.377Z,100011.59
2023-04-22T10:42:28.528Z,100014.38
2023-04-22T10:47:32.550Z,100009.25
2023-04-22T10:52:34.035Z,100006.81
2023-04-22T10:57:43.844Z,99999.56
2023-04-22T11:02:46.533Z,99992.75
2023-04-22T11:07:53.906Z,99987.28
2023-04-22T11:12:55.715Z,99974.78
2023-04-22T11:17:57.608Z,99972.25
2023-04-22T11:22:59.731Z,99975.94
2023-04-22T11:28:01.278Z,99957.66
2023-04-22T11:33:02.849Z,99959.03
2023-04-22T11:38:06.106Z,99962.59
2023-04-22T11:43:08.890Z,99952.09
2023-04-22T11:48:11.822Z,99951.78
2023-04-22T11:53:18.430Z,99945.97
2023-04-22T11:58:25.222Z,99939.38
2023-04-22T12:03:28.918Z,99941.19
2023-04-22T12:08:44.350Z,99944.13
2023-04-22T12:13:46.724Z,99937.09
2023-04-22T12:18:48.091Z,99939.00
2023-04-22T12:23:59.378Z,99931.53
2023-04-22T12:29:01.230Z,99927.28
2023-04-22T12:34:02.815Z,99928.34
2023-04-22T12:39:04.824Z,99925.59
2023-04-22T12:44:06.305Z,99908.09
2023-04-22T12:49:07.793Z,99905.19
2023-04-22T12:54:10.646Z,99897.47
2023-04-22T12:59:12.937Z,99884.75
2023-04-22T13:04:14.475Z,99888.72
2023-04-22T13:09:16.515Z,99877.69
2023-04-22T13:14:18.523Z,99868.59
2023-04-22T13:19:20.068Z,99863.69
2023-04-22T13:24:21.526Z,99863.25
2023-04-22T13:29:23.213Z,99856.28
2023-04-22T13:34:24.719Z,99857.34
2023-04-22T13:39:26.293Z,99853.72
2023-04-22T13:44:27.721Z,99853.47
2023-04-22T13:49:29.278Z,99847.03
2023-04-22T13:54:31.230Z,99842.03
2023-04-22T13:59:35.087Z,99840.25
2023-04-22T14:04:36.602Z,99840.31
2023-04-22T14:09:38.232Z,99832.38
2023-04-22T14:14:40.015Z,99831.59
2023-04-22T14:19:42.324Z,99819.53
2023-04-22T14:24:43.977Z,99818.63
2023-04-22T14:29:46.149Z,99817.78
2023-04-22T14:34:48.017Z,99810.78
2023-04-22T14:39:49.514Z,99806.63
2023-04-22T14:44:51.093Z,99803.47
2023-04-22T14:49:52.595Z,99806.81
2023-04-22T14:54:54.090Z,99805.09
2023-04-22T14:59:55.542Z,99792.56
2023-04-22T15:04:56.971Z,99799.13
2023-04-22T15:10:01.310Z,99789.28
2023-04-22T15:15:02.901Z,99780.22
2023-04-22T15:20:06.532Z,99783.63
2023-04-22T15:25:10.746Z,99780.31
2023-04-22T15:30:12.462Z,99772.78
2023-04-22T15:35:14.271Z,99778.53
2023-04-22T15:40:15.783Z,99769.94
2023-04-22T15:45:17.254Z,99777.19
2023-04-22T15:50:19.286Z,99774.19
2023-04-22T15:55:21.058Z,99767.84
2023-04-22T16:00:22.548Z,99755.13
2023-04-22T16:05:25.196Z,99749.44
2023-04-22T16:10:27.923Z,99757.03
2023-04-22T16:15:29.406Z,99752.63
2023-04-22T16:20:31.159Z,99743.72
2023-04-22T16:25:32.638Z,99743.91
2023-04-22T16:30:34.175Z,99738.50
2023-04-22T16:35:35.833Z,99735.66
2023-04-22T16:40:38.699Z,99734.31
2023-04-22T16:45:40.492Z,99727.16
2023-04-22T16:50:41.950Z,99728.66
2023-04-22T16:55:43.467Z,99720.34
2023-04-22T17:00:47.494Z,99722.41
2023-04-22T17:05:49.297Z,99721.63
2023-04-22T17:10:52.369Z,99717.63
2023-04-22T17:15:53.835Z,99710.53
2023-04-22T17:20:55.901Z,99701.00
2023-04-22T17:25:57.347Z,99710.53
2023-04-22T17:30:58.910Z,99709.56
2023-04-22T17:36:00.674Z,99713.41
2023-04-22T17:41:02.286Z,99709.59
2023-04-22T17:46:03.756Z,99716.28
2023-04-22T17:51:06.563Z,99703.91
2023-04-22T17:56:08.916Z,99711.97
2023-04-22T18:01:10.539Z,99722.25
2023-04-22T18:06:12.008Z,99717.84
2023-04-22T18:11:13.586Z,99720.63
2023-04-22T18:16:15.078Z,99721.47
2023-04-22T18:21:16.942Z,99721.34
2023-04-22T18:26:18.360Z,99735.03
2023-04-22T18:31:20.661Z,99725.50
2023-04-22T18:36:22.406Z,99734.03
2023-04-22T18:41:25.482Z,99742.56
2023-04-22T18:46:27.037Z,99737.47
2023-04-22T18:51:30.119Z,99732.34
2023-04-22T18:56:32.935Z,99725.38
2023-04-22T19:01:35.522Z,99727.56
2023-04-22T19:06:37.002Z,99734.69
2023-04-22T19:11:38.511Z,99732.28
2023-04-22T19:16:40.312Z,99726.84
2023-04-22T19:21:41.830Z,99726.16
2023-04-22T19:26:43.461Z,99735.31
2023-04-22T19:31:45.579Z,99727.69
2023-04-22T19:36:47.030Z,99718.66
2023-04-22T19:41:48.580Z,99723.38
2023-04-22T19:46:50.383Z,99718.44
2023-04-22T19:51:52.854Z,99718.06
2023-04-22T19:56:54.948Z,99712.72
2023-04-22T20:01:56.576Z,99707.50
2023-04-22T20:07:00.785Z,99709.66
2023-04-22T20:12:05.103Z,99714.09
2023-04-22T20:17:07.381Z,99704.38
2023-04-22T20:22:09.557Z,99714.56
2023-04-22T20:27:11.697Z,99706.50
2023-04-22T20:32:13.328Z,99709.47
2023-04-22T20:37:19.841Z,99708.13
2023-04-22T20:42:23.192Z,99709.59
2023-04-22T20:47:25.030Z,99711.75
2023-04-22T20:52:26.627Z,99713.50
2023-04-22T20:57:28.324Z,99704.25
2023-04-22T21:02:31.536Z,99693.09
2023-04-22T21:07:34.649Z,99695.38
2023-04-22T21:12:36.652Z,99697.38
2023-04-22T21:17:41.557Z,99696.75
2023-04-22T21:22:44.070Z,99705.38
2023-04-22T21:27:46.128Z,99704.38
2023-04-22T21:32:47.635Z,99701.34
2023-04-22T21:37:49.094Z,99700.72
2023-04-22T21:42:51.025Z,99697.59
2023-04-22T21:47:52.438Z,99698.31
2023-04-22T21:52:53.917Z,99693.19
2023-04-22T21:57:55.613Z,99693.06
2023-04-22T22:02:57.257Z,99694.53
2023-04-22T22:07:58.751Z,99692.16
2023-04-22T22:13:00.783Z,99697.69
2023-04-22T22:18:04.137Z,99704.66
2023-04-22T22:23:05.616Z,99697.28
2023-04-22T22:28:07.047Z,99704.16
2023-04-22T22:33:08.707Z,99698.84
2023-04-22T22:38:10.298Z,99704.09
2023-04-22T22:43:13.419Z,99697.81
2023-04-22T22:48:14.900Z,99704.56
2023-04-22T22:53:16.555Z,99696.59
2023-04-22T22:58:17.964Z,99703.38
2023-04-22T23:03:20.008Z,99702.09
2023-04-22T23:08:21.811Z,99699.84
2023-04-22T23:13:23.288Z,99691.75
2023-04-22T23:18:26.753Z,99694.19
2023-04-22T23:23:29.812Z,99686.47
2023-04-22T23:28:31.462Z,99677.53
2023-04-22T23:33:35.060Z,99677.66
2023-04-22T23:38:36.516Z,99679.81
2023-04-22T23:43:37.930Z,99679.13
2023-04-22T23:48:39.511Z,99673.84
2023-04-22T23:53:40.947Z,99677.41
2023-04-22T23:58:42.777Z,99670.41
